Terminal Aerodrome Forecast
Issued by NWS

Home | Current Version | Previous Version | Text Only | Print | Product List | Glossary On
Versions: 1 2 3 4 5 6 7 8 9 10 11 12 13 14 15 16 17
000
FTUS43 KIND 212323
TAFLAF
TAF
KLAF 212323Z 2200/2224 32013G18KT P6SM SCT015 OVC050
      TEMPO 2200/2201 OVC015
     FM220100 33011KT P6SM SCT040
     FM220500 32007KT P6SM FEW250
     FM222000 VRB03KT P6SM SKC
      AMD LTD TO CLD VIS AND WIND 2202/2214=

USA.gov is the U.S. government's official web portal to all federal, state and local government web resources and services.